sensor_id;sensor_type;location;lat;lon;timestamp;temperature;humidity
71082;SHT31;58740;50.672;18.690;2022-12-26T00:01:44;6.17;84.28
71082;SHT31;58740;50.672;18.690;2022-12-26T00:04:16;6.16;84.30
71082;SHT31;58740;50.672;18.690;2022-12-26T00:07:04;6.17;84.30
71082;SHT31;58740;50.672;18.690;2022-12-26T00:09:32;6.18;84.30
71082;SHT31;58740;50.672;18.690;2022-12-26T00:12:00;6.16;84.33
71082;SHT31;58740;50.672;18.690;2022-12-26T00:14:28;6.15;84.46
71082;SHT31;58740;50.672;18.690;2022-12-26T00:16:56;6.17;84.49
71082;SHT31;58740;50.672;18.690;2022-12-26T00:19:23;6.17;84.51
71082;SHT31;58740;50.672;18.690;2022-12-26T00:21:51;6.21;84.56
71082;SHT31;58740;50.672;18.690;2022-12-26T00:24:19;6.24;84.43
71082;SHT31;58740;50.672;18.690;2022-12-26T00:26:47;6.25;84.39
71082;SHT31;58740;50.672;18.690;2022-12-26T00:29:14;6.26;84.39
71082;SHT31;58740;50.672;18.690;2022-12-26T00:31:42;6.25;84.42
71082;SHT31;58740;50.672;18.690;2022-12-26T00:34:10;6.25;84.44
71082;SHT31;58740;50.672;18.690;2022-12-26T00:36:37;6.26;84.48
71082;SHT31;58740;50.672;18.690;2022-12-26T00:39:05;6.24;84.40
71082;SHT31;58740;50.672;18.690;2022-12-26T00:41:33;6.24;84.49
71082;SHT31;58740;50.672;18.690;2022-12-26T00:44:01;6.24;84.47
71082;SHT31;58740;50.672;18.690;2022-12-26T00:46:29;6.25;84.50
71082;SHT31;58740;50.672;18.690;2022-12-26T00:48:57;6.27;84.52
71082;SHT31;58740;50.672;18.690;2022-12-26T00:51:25;6.27;84.48
71082;SHT31;58740;50.672;18.690;2022-12-26T00:53:53;6.25;84.48
71082;SHT31;58740;50.672;18.690;2022-12-26T00:56:21;6.22;84.50
71082;SHT31;58740;50.672;18.690;2022-12-26T00:58:48;6.20;84.54
71082;SHT31;58740;50.672;18.690;2022-12-26T01:01:20;6.20;84.65
71082;SHT31;58740;50.672;18.690;2022-12-26T01:03:50;6.22;84.61
71082;SHT31;58740;50.672;18.690;2022-12-26T01:06:18;6.24;84.57
71082;SHT31;58740;50.672;18.690;2022-12-26T01:08:46;6.23;84.57
71082;SHT31;58740;50.672;18.690;2022-12-26T01:11:14;6.25;84.56
71082;SHT31;58740;50.672;18.690;2022-12-26T01:14:03;6.24;84.59
71082;SHT31;58740;50.672;18.690;2022-12-26T01:16:33;6.22;84.58
71082;SHT31;58740;50.672;18.690;2022-12-26T01:19:01;6.20;84.65
71082;SHT31;58740;50.672;18.690;2022-12-26T01:21:28;6.20;84.69
71082;SHT31;58740;50.672;18.690;2022-12-26T01:23:56;6.22;84.70
71082;SHT31;58740;50.672;18.690;2022-12-26T01:26:24;6.22;84.70
71082;SHT31;58740;50.672;18.690;2022-12-26T01:28:52;6.21;84.68
71082;SHT31;58740;50.672;18.690;2022-12-26T01:31:21;6.22;84.74
71082;SHT31;58740;50.672;18.690;2022-12-26T01:33:49;6.20;84.82
71082;SHT31;58740;50.672;18.690;2022-12-26T01:36:17;6.19;84.90
71082;SHT31;58740;50.672;18.690;2022-12-26T01:38:45;6.20;84.89
71082;SHT31;58740;50.672;18.690;2022-12-26T01:41:13;6.21;84.90
71082;SHT31;58740;50.672;18.690;2022-12-26T01:44:00;6.24;84.94
71082;SHT31;58740;50.672;18.690;2022-12-26T01:46:52;6.26;84.90
71082;SHT31;58740;50.672;18.690;2022-12-26T01:49:24;6.27;84.88
71082;SHT31;58740;50.672;18.690;2022-12-26T01:52:03;6.26;84.81
71082;SHT31;58740;50.672;18.690;2022-12-26T01:54:37;6.25;84.85
71082;SHT31;58740;50.672;18.690;2022-12-26T01:57:13;6.25;84.91
71082;SHT31;58740;50.672;18.690;2022-12-26T01:59:56;6.28;84.93
71082;SHT31;58740;50.672;18.690;2022-12-26T02:02:28;6.30;84.90
71082;SHT31;58740;50.672;18.690;2022-12-26T02:04:57;6.31;84.90
71082;SHT31;58740;50.672;18.690;2022-12-26T02:07:44;6.30;84.95
71082;SHT31;58740;50.672;18.690;2022-12-26T02:10:15;6.29;85.05
71082;SHT31;58740;50.672;18.690;2022-12-26T02:12:52;6.30;85.10
71082;SHT31;58740;50.672;18.690;2022-12-26T02:15:20;6.32;85.11
71082;SHT31;58740;50.672;18.690;2022-12-26T02:17:48;6.34;85.15
71082;SHT31;58740;50.672;18.690;2022-12-26T02:20:26;6.36;85.26
71082;SHT31;58740;50.672;18.690;2022-12-26T02:53:00;6.76;85.47
71082;SHT31;58740;50.672;18.690;2022-12-26T02:55:57;6.80;85.39
71082;SHT31;58740;50.672;18.690;2022-12-26T02:59:00;6.83;85.36
71082;SHT31;58740;50.672;18.690;2022-12-26T03:02:24;6.85;85.40
71082;SHT31;58740;50.672;18.690;2022-12-26T03:05:41;6.86;85.49
71082;SHT31;58740;50.672;18.690;2022-12-26T03:08:36;6.89;85.50
71082;SHT31;58740;50.672;18.690;2022-12-26T03:11:31;6.92;85.51
71082;SHT31;58740;50.672;18.690;2022-12-26T03:14:37;6.97;85.50
71082;SHT31;58740;50.672;18.690;2022-12-26T03:17:29;7.01;85.49
71082;SHT31;58740;50.672;18.690;2022-12-26T03:20:02;7.03;85.50
71082;SHT31;58740;50.672;18.690;2022-12-26T03:22:43;7.05;85.49
71082;SHT31;58740;50.672;18.690;2022-12-26T03:25:23;7.05;85.49
71082;SHT31;58740;50.672;18.690;2022-12-26T03:28:35;7.07;85.50
71082;SHT31;58740;50.672;18.690;2022-12-26T03:31:04;7.10;85.50
71082;SHT31;58740;50.672;18.690;2022-12-26T03:33:38;7.11;85.49
71082;SHT31;58740;50.672;18.690;2022-12-26T03:49:36;7.17;85.55
71082;SHT31;58740;50.672;18.690;2022-12-26T04:01:59;7.21;85.70
71082;SHT31;58740;50.672;18.690;2022-12-26T04:04:52;7.22;85.70
71082;SHT31;58740;50.672;18.690;2022-12-26T04:07:45;7.22;85.73
71082;SHT31;58740;50.672;18.690;2022-12-26T04:10:49;7.23;85.78
71082;SHT31;58740;50.672;18.690;2022-12-26T04:23:30;7.26;86.05
71082;SHT31;58740;50.672;18.690;2022-12-26T04:26:31;7.28;86.03
71082;SHT31;58740;50.672;18.690;2022-12-26T04:29:25;7.31;86.07
71082;SHT31;58740;50.672;18.690;2022-12-26T04:32:17;7.32;86.02
71082;SHT31;58740;50.672;18.690;2022-12-26T04:35:18;7.32;86.09
71082;SHT31;58740;50.672;18.690;2022-12-26T04:38:12;7.33;86.10
71082;SHT31;58740;50.672;18.690;2022-12-26T04:41:07;7.36;86.09
71082;SHT31;58740;50.672;18.690;2022-12-26T04:43:57;7.41;86.10
71082;SHT31;58740;50.672;18.690;2022-12-26T04:46:34;7.42;86.07
71082;SHT31;58740;50.672;18.690;2022-12-26T04:49:11;7.46;86.08
71082;SHT31;58740;50.672;18.690;2022-12-26T04:52:06;7.49;86.07
71082;SHT31;58740;50.672;18.690;2022-12-26T04:54:38;7.50;86.05
71082;SHT31;58740;50.672;18.690;2022-12-26T04:57:06;7.51;86.05
71082;SHT31;58740;50.672;18.690;2022-12-26T04:59:34;7.52;86.11
71082;SHT31;58740;50.672;18.690;2022-12-26T05:02:01;7.53;86.02
71082;SHT31;58740;50.672;18.690;2022-12-26T05:04:48;7.56;86.09
71082;SHT31;58740;50.672;18.690;2022-12-26T05:07:35;7.61;86.02
71082;SHT31;58740;50.672;18.690;2022-12-26T05:10:24;7.62;85.98
71082;SHT31;58740;50.672;18.690;2022-12-26T05:12:55;7.63;85.97
71082;SHT31;58740;50.672;18.690;2022-12-26T05:15:22;7.62;86.05
71082;SHT31;58740;50.672;18.690;2022-12-26T05:17:50;7.63;86.01
71082;SHT31;58740;50.672;18.690;2022-12-26T05:20:38;7.63;86.07
71082;SHT31;58740;50.672;18.690;2022-12-26T05:23:14;7.66;86.01
71082;SHT31;58740;50.672;18.690;2022-12-26T05:26:09;7.69;85.99
71082;SHT31;58740;50.672;18.690;2022-12-26T05:29:07;7.69;85.99
71082;SHT31;58740;50.672;18.690;2022-12-26T05:31:34;7.70;85.91
71082;SHT31;58740;50.672;18.690;2022-12-26T05:34:04;7.71;85.90
71082;SHT31;58740;50.672;18.690;2022-12-26T05:36:38;7.71;85.91
71082;SHT31;58740;50.672;18.690;2022-12-26T05:39:10;7.73;85.94
71082;SHT31;58740;50.672;18.690;2022-12-26T05:41:39;7.77;85.86
71082;SHT31;58740;50.672;18.690;2022-12-26T05:44:07;7.81;85.81
71082;SHT31;58740;50.672;18.690;2022-12-26T05:46:36;7.81;85.76
71082;SHT31;58740;50.672;18.690;2022-12-26T05:49:05;7.81;85.70
71082;SHT31;58740;50.672;18.690;2022-12-26T05:51:33;7.82;85.68
71082;SHT31;58740;50.672;18.690;2022-12-26T05:54:02;7.84;85.70
71082;SHT31;58740;50.672;18.690;2022-12-26T05:56:31;7.85;85.60
71082;SHT31;58740;50.672;18.690;2022-12-26T05:58:59;7.85;85.60
71082;SHT31;58740;50.672;18.690;2022-12-26T06:01:28;7.85;85.57
71082;SHT31;58740;50.672;18.690;2022-12-26T06:03:57;7.84;85.52
71082;SHT31;58740;50.672;18.690;2022-12-26T06:06:27;7.82;85.53
71082;SHT31;58740;50.672;18.690;2022-12-26T06:08:55;7.83;85.56
71082;SHT31;58740;50.672;18.690;2022-12-26T06:11:24;7.83;85.52
71082;SHT31;58740;50.672;18.690;2022-12-26T06:13:53;7.83;85.59
71082;SHT31;58740;50.672;18.690;2022-12-26T06:16:22;7.85;85.53
71082;SHT31;58740;50.672;18.690;2022-12-26T06:18:50;7.86;85.50
71082;SHT31;58740;50.672;18.690;2022-12-26T06:21:18;7.87;85.49
71082;SHT31;58740;50.672;18.690;2022-12-26T06:23:47;7.86;85.50
71082;SHT31;58740;50.672;18.690;2022-12-26T06:26:16;7.83;85.50
71082;SHT31;58740;50.672;18.690;2022-12-26T06:28:44;7.83;85.50
71082;SHT31;58740;50.672;18.690;2022-12-26T06:31:17;7.83;85.49
71082;SHT31;58740;50.672;18.690;2022-12-26T06:33:49;7.85;85.43
71082;SHT31;58740;50.672;18.690;2022-12-26T06:36:22;7.86;85.40
71082;SHT31;58740;50.672;18.690;2022-12-26T06:38:52;7.86;85.41
71082;SHT31;58740;50.672;18.690;2022-12-26T06:41:22;7.85;85.43
71082;SHT31;58740;50.672;18.690;2022-12-26T06:43:51;7.84;85.45
71082;SHT31;58740;50.672;18.690;2022-12-26T06:46:21;7.83;85.48
71082;SHT31;58740;50.672;18.690;2022-12-26T06:48:52;7.84;85.55
71082;SHT31;58740;50.672;18.690;2022-12-26T06:51:21;7.83;85.55
71082;SHT31;58740;50.672;18.690;2022-12-26T06:53:51;7.84;85.51
71082;SHT31;58740;50.672;18.690;2022-12-26T06:56:21;7.84;85.57
71082;SHT31;58740;50.672;18.690;2022-12-26T06:59:01;7.84;85.60
71082;SHT31;58740;50.672;18.690;2022-12-26T07:01:32;7.85;85.58
71082;SHT31;58740;50.672;18.690;2022-12-26T07:04:01;7.83;85.59
71082;SHT31;58740;50.672;18.690;2022-12-26T07:06:35;7.84;85.58
71082;SHT31;58740;50.672;18.690;2022-12-26T07:09:05;7.83;85.61
71082;SHT31;58740;50.672;18.690;2022-12-26T07:11:45;7.84;85.55
71082;SHT31;58740;50.672;18.690;2022-12-26T07:14:16;7.85;85.59
71082;SHT31;58740;50.672;18.690;2022-12-26T07:16:44;7.87;85.57
71082;SHT31;58740;50.672;18.690;2022-12-26T07:19:13;7.87;85.51
71082;SHT31;58740;50.672;18.690;2022-12-26T07:21:42;7.87;85.54
71082;SHT31;58740;50.672;18.690;2022-12-26T07:24:14;7.86;85.50
71082;SHT31;58740;50.672;18.690;2022-12-26T07:26:44;7.86;85.60
71082;SHT31;58740;50.672;18.690;2022-12-26T07:29:14;7.86;85.60
71082;SHT31;58740;50.672;18.690;2022-12-26T07:31:42;7.86;85.61
71082;SHT31;58740;50.672;18.690;2022-12-26T07:34:10;7.86;85.63
71082;SHT31;58740;50.672;18.690;2022-12-26T07:36:39;7.85;85.71
71082;SHT31;58740;50.672;18.690;2022-12-26T07:39:07;7.83;85.77
71082;SHT31;58740;50.672;18.690;2022-12-26T07:41:35;7.80;85.88
71082;SHT31;58740;50.672;18.690;2022-12-26T07:44:22;7.79;85.91
71082;SHT31;58740;50.672;18.690;2022-12-26T07:46:54;7.81;85.96
71082;SHT31;58740;50.672;18.690;2022-12-26T07:49:23;7.83;86.00
71082;SHT31;58740;50.672;18.690;2022-12-26T07:51:52;7.84;86.00
71082;SHT31;58740;50.672;18.690;2022-12-26T07:54:20;7.82;86.07
71082;SHT31;58740;50.672;18.690;2022-12-26T07:56:47;7.80;86.24
71082;SHT31;58740;50.672;18.690;2022-12-26T07:59:16;7.78;86.36
71082;SHT31;58740;50.672;18.690;2022-12-26T08:01:44;7.76;86.50
71082;SHT31;58740;50.672;18.690;2022-12-26T08:04:12;7.75;86.60
71082;SHT31;58740;50.672;18.690;2022-12-26T08:06:41;7.76;86.65
71082;SHT31;58740;50.672;18.690;2022-12-26T08:09:12;7.78;86.73
71082;SHT31;58740;50.672;18.690;2022-12-26T08:11:45;7.80;86.71
71082;SHT31;58740;50.672;18.690;2022-12-26T08:14:13;7.80;86.78
71082;SHT31;58740;50.672;18.690;2022-12-26T08:16:43;7.78;86.84
71082;SHT31;58740;50.672;18.690;2022-12-26T08:19:17;7.76;86.90
71082;SHT31;58740;50.672;18.690;2022-12-26T08:21:45;7.76;86.95
71082;SHT31;58740;50.672;18.690;2022-12-26T08:24:13;7.75;87.01
71082;SHT31;58740;50.672;18.690;2022-12-26T08:26:42;7.76;87.11
71082;SHT31;58740;50.672;18.690;2022-12-26T08:29:10;7.79;87.01
71082;SHT31;58740;50.672;18.690;2022-12-26T08:31:38;7.81;87.17
71082;SHT31;58740;50.672;18.690;2022-12-26T08:34:06;7.83;87.19
71082;SHT31;58740;50.672;18.690;2022-12-26T08:36:34;7.82;87.26
71082;SHT31;58740;50.672;18.690;2022-12-26T08:39:02;7.79;87.26
71082;SHT31;58740;50.672;18.690;2022-12-26T08:41:30;7.77;87.45
71082;SHT31;58740;50.672;18.690;2022-12-26T08:43:58;7.76;87.52
71082;SHT31;58740;50.672;18.690;2022-12-26T08:46:46;7.77;87.43
71082;SHT31;58740;50.672;18.690;2022-12-26T08:49:13;7.77;87.40
71082;SHT31;58740;50.672;18.690;2022-12-26T08:51:41;7.76;87.54
71082;SHT31;58740;50.672;18.690;2022-12-26T08:54:09;7.76;87.52
71082;SHT31;58740;50.672;18.690;2022-12-26T08:56:37;7.76;87.58
71082;SHT31;58740;50.672;18.690;2022-12-26T08:59:05;7.75;87.48
71082;SHT31;58740;50.672;18.690;2022-12-26T09:01:33;7.76;87.49
71082;SHT31;58740;50.672;18.690;2022-12-26T09:04:02;7.77;87.53
71082;SHT31;58740;50.672;18.690;2022-12-26T09:06:33;7.80;87.49
71082;SHT31;58740;50.672;18.690;2022-12-26T09:09:04;7.82;87.40
71082;SHT31;58740;50.672;18.690;2022-12-26T09:11:34;7.85;87.38
71082;SHT31;58740;50.672;18.690;2022-12-26T09:14:02;7.86;87.30
71082;SHT31;58740;50.672;18.690;2022-12-26T09:16:37;7.86;87.31
71082;SHT31;58740;50.672;18.690;2022-12-26T09:19:16;7.87;87.28
71082;SHT31;58740;50.672;18.690;2022-12-26T09:21:46;7.87;87.29
71082;SHT31;58740;50.672;18.690;2022-12-26T09:24:36;7.85;87.31
71082;SHT31;58740;50.672;18.690;2022-12-26T09:27:04;7.88;87.30
71082;SHT31;58740;50.672;18.690;2022-12-26T09:29:32;7.90;87.30
71082;SHT31;58740;50.672;18.690;2022-12-26T09:32:00;7.90;87.25
71082;SHT31;58740;50.672;18.690;2022-12-26T09:34:27;7.93;87.23
71082;SHT31;58740;50.672;18.690;2022-12-26T09:36:55;7.94;87.22
71082;SHT31;58740;50.672;18.690;2022-12-26T09:39:23;7.97;87.24
71082;SHT31;58740;50.672;18.690;2022-12-26T09:41:53;8.01;87.14
71082;SHT31;58740;50.672;18.690;2022-12-26T09:44:40;8.02;87.10
71082;SHT31;58740;50.672;18.690;2022-12-26T09:50:42;8.02;87.09
71082;SHT31;58740;50.672;18.690;2022-12-26T09:53:14;8.05;87.07
71082;SHT31;58740;50.672;18.690;2022-12-26T09:56:01;8.06;86.99
71082;SHT31;58740;50.672;18.690;2022-12-26T09:58:55;8.08;86.90
71082;SHT31;58740;50.672;18.690;2022-12-26T10:01:29;8.07;86.90
71082;SHT31;58740;50.672;18.690;2022-12-26T10:04:06;8.05;86.92
71082;SHT31;58740;50.672;18.690;2022-12-26T10:07:02;8.04;86.91
71082;SHT31;58740;50.672;18.690;2022-12-26T10:12:47;8.06;86.91
71082;SHT31;58740;50.672;18.690;2022-12-26T10:16:10;8.10;86.97
71082;SHT31;58740;50.672;18.690;2022-12-26T10:24:40;8.20;86.67
71082;SHT31;58740;50.672;18.690;2022-12-26T10:27:11;8.20;86.68
71082;SHT31;58740;50.672;18.690;2022-12-26T10:30:02;8.23;86.73
71082;SHT31;58740;50.672;18.690;2022-12-26T10:32:38;8.27;86.67
71082;SHT31;58740;50.672;18.690;2022-12-26T10:35:20;8.32;86.65
71082;SHT31;58740;50.672;18.690;2022-12-26T10:37:59;8.36;86.51
71082;SHT31;58740;50.672;18.690;2022-12-26T10:40:42;8.39;86.37
71082;SHT31;58740;50.672;18.690;2022-12-26T10:43:30;8.41;86.26
71082;SHT31;58740;50.672;18.690;2022-12-26T10:49:16;8.50;86.22
71082;SHT31;58740;50.672;18.690;2022-12-26T10:51:50;8.55;86.16
71082;SHT31;58740;50.672;18.690;2022-12-26T10:54:22;8.58;86.02
71082;SHT31;58740;50.672;18.690;2022-12-26T10:56:50;8.58;85.98
71082;SHT31;58740;50.672;18.690;2022-12-26T10:59:21;8.58;86.04
71082;SHT31;58740;50.672;18.690;2022-12-26T11:02:10;8.58;85.79
71082;SHT31;58740;50.672;18.690;2022-12-26T11:05:17;8.59;85.76
71082;SHT31;58740;50.672;18.690;2022-12-26T11:08:06;8.60;85.62
71082;SHT31;58740;50.672;18.690;2022-12-26T11:11:34;8.63;85.60
71082;SHT31;58740;50.672;18.690;2022-12-26T11:13:53;8.64;85.31
71082;SHT31;58740;50.672;18.690;2022-12-26T11:16:30;8.62;85.38
71082;SHT31;58740;50.672;18.690;2022-12-26T11:19:04;8.60;85.24
71082;SHT31;58740;50.672;18.690;2022-12-26T11:21:32;8.58;85.20
71082;SHT31;58740;50.672;18.690;2022-12-26T11:26:35;8.56;85.23
71082;SHT31;58740;50.672;18.690;2022-12-26T11:29:12;8.56;85.35
71082;SHT31;58740;50.672;18.690;2022-12-26T11:32:02;8.57;85.28
71082;SHT31;58740;50.672;18.690;2022-12-26T11:34:32;8.56;85.21
71082;SHT31;58740;50.672;18.690;2022-12-26T11:37:22;8.54;85.23
71082;SHT31;58740;50.672;18.690;2022-12-26T11:40:00;8.54;85.13
71082;SHT31;58740;50.672;18.690;2022-12-26T11:42:28;8.56;85.21
71082;SHT31;58740;50.672;18.690;2022-12-26T11:44:56;8.57;85.21
71082;SHT31;58740;50.672;18.690;2022-12-26T11:47:30;8.60;85.21
71082;SHT31;58740;50.672;18.690;2022-12-26T11:52:40;8.69;85.03
71082;SHT31;58740;50.672;18.690;2022-12-26T11:58:00;8.73;84.97
71082;SHT31;58740;50.672;18.690;2022-12-26T12:00:38;8.75;85.00
71082;SHT31;58740;50.672;18.690;2022-12-26T12:03:12;8.79;84.99
71082;SHT31;58740;50.672;18.690;2022-12-26T12:13:57;9.13;84.20
71082;SHT31;58740;50.672;18.690;2022-12-26T12:20:14;9.23;83.96
71082;SHT31;58740;50.672;18.690;2022-12-26T12:26:11;9.30;83.86
71082;SHT31;58740;50.672;18.690;2022-12-26T12:29:37;9.30;83.73
71082;SHT31;58740;50.672;18.690;2022-12-26T12:33:03;9.29;83.65
71082;SHT31;58740;50.672;18.690;2022-12-26T12:35:33;9.25;83.68
71082;SHT31;58740;50.672;18.690;2022-12-26T12:44:52;9.29;83.54
71082;SHT31;58740;50.672;18.690;2022-12-26T12:56:45;9.27;83.38
71082;SHT31;58740;50.672;18.690;2022-12-26T13:02:01;9.27;83.14
71082;SHT31;58740;50.672;18.690;2022-12-26T13:04:48;9.26;83.40
71082;SHT31;58740;50.672;18.690;2022-12-26T13:07:36;9.26;82.98
71082;SHT31;58740;50.672;18.690;2022-12-26T13:10:16;9.24;83.12
71082;SHT31;58740;50.672;18.690;2022-12-26T13:12:53;9.21;83.12
71082;SHT31;58740;50.672;18.690;2022-12-26T13:15:30;9.17;83.26
71082;SHT31;58740;50.672;18.690;2022-12-26T13:18:09;9.15;83.19
71082;SHT31;58740;50.672;18.690;2022-12-26T13:20:48;9.14;83.27
71082;SHT31;58740;50.672;18.690;2022-12-26T13:23:28;9.14;83.38
71082;SHT31;58740;50.672;18.690;2022-12-26T13:26:23;9.13;83.30
71082;SHT31;58740;50.672;18.690;2022-12-26T13:29:02;9.10;83.39
71082;SHT31;58740;50.672;18.690;2022-12-26T13:31:39;9.07;83.37
71082;SHT31;58740;50.672;18.690;2022-12-26T13:34:14;9.02;83.54
71082;SHT31;58740;50.672;18.690;2022-12-26T13:42:04;8.98;83.63
71082;SHT31;58740;50.672;18.690;2022-12-26T13:53:27;8.94;83.88
71082;SHT31;58740;50.672;18.690;2022-12-26T13:56:03;8.94;83.94
71082;SHT31;58740;50.672;18.690;2022-12-26T14:05:35;8.98;84.14
71082;SHT31;58740;50.672;18.690;2022-12-26T14:14:23;8.99;84.21
71082;SHT31;58740;50.672;18.690;2022-12-26T14:17:21;9.00;84.20
71082;SHT31;58740;50.672;18.690;2022-12-26T14:34:35;9.03;84.25
71082;SHT31;58740;50.672;18.690;2022-12-26T14:45:51;9.02;84.26
71082;SHT31;58740;50.672;18.690;2022-12-26T14:50:51;9.02;84.23
71082;SHT31;58740;50.672;18.690;2022-12-26T14:58:44;9.05;84.21
71082;SHT31;58740;50.672;18.690;2022-12-26T15:06:55;9.01;84.17
71082;SHT31;58740;50.672;18.690;2022-12-26T15:27:55;9.00;83.90
71082;SHT31;58740;50.672;18.690;2022-12-26T15:33:45;9.05;83.65
71082;SHT31;58740;50.672;18.690;2022-12-26T15:37:03;9.06;83.52
71082;SHT31;58740;50.672;18.690;2022-12-26T15:40:04;9.05;83.74
71082;SHT31;58740;50.672;18.690;2022-12-26T15:42:59;9.02;83.70
71082;SHT31;58740;50.672;18.690;2022-12-26T15:46:09;9.00;83.83
71082;SHT31;58740;50.672;18.690;2022-12-26T15:51:45;9.01;83.84
71082;SHT31;58740;50.672;18.690;2022-12-26T15:57:23;8.98;83.87
71082;SHT31;58740;50.672;18.690;2022-12-26T16:05:52;8.93;83.99
71082;SHT31;58740;50.672;18.690;2022-12-26T16:13:55;8.95;83.90
71082;SHT31;58740;50.672;18.690;2022-12-26T16:16:30;8.91;84.00
71082;SHT31;58740;50.672;18.690;2022-12-26T16:19:16;8.88;84.08
71082;SHT31;58740;50.672;18.690;2022-12-26T16:21:58;8.88;84.11
71082;SHT31;58740;50.672;18.690;2022-12-26T16:24:49;8.88;84.16
71082;SHT31;58740;50.672;18.690;2022-12-26T16:27:20;8.90;84.20
71082;SHT31;58740;50.672;18.690;2022-12-26T16:29:54;8.91;84.19
71082;SHT31;58740;50.672;18.690;2022-12-26T16:32:30;8.92;84.13
71082;SHT31;58740;50.672;18.690;2022-12-26T16:35:04;8.92;84.20
71082;SHT31;58740;50.672;18.690;2022-12-26T16:37:34;8.92;84.16
71082;SHT31;58740;50.672;18.690;2022-12-26T16:42:37;8.92;84.12
71082;SHT31;58740;50.672;18.690;2022-12-26T16:45:17;8.91;84.20
71082;SHT31;58740;50.672;18.690;2022-12-26T16:47:47;8.93;84.09
71082;SHT31;58740;50.672;18.690;2022-12-26T16:50:17;8.91;84.19
71082;SHT31;58740;50.672;18.690;2022-12-26T16:52:52;8.91;84.25
71082;SHT31;58740;50.672;18.690;2022-12-26T16:58:16;8.89;84.21
71082;SHT31;58740;50.672;18.690;2022-12-26T17:01:01;8.91;84.20
71082;SHT31;58740;50.672;18.690;2022-12-26T17:06:47;8.91;84.15
71082;SHT31;58740;50.672;18.690;2022-12-26T17:09:22;8.91;84.06
71082;SHT31;58740;50.672;18.690;2022-12-26T17:14:35;8.88;84.16
71082;SHT31;58740;50.672;18.690;2022-12-26T17:17:40;8.88;84.13
71082;SHT31;58740;50.672;18.690;2022-12-26T17:22:53;8.86;84.17
71082;SHT31;58740;50.672;18.690;2022-12-26T17:25:27;8.86;84.16
71082;SHT31;58740;50.672;18.690;2022-12-26T17:30:44;8.86;84.15
71082;SHT31;58740;50.672;18.690;2022-12-26T17:33:21;8.88;84.20
71082;SHT31;58740;50.672;18.690;2022-12-26T17:35:56;8.90;84.13
71082;SHT31;58740;50.672;18.690;2022-12-26T17:38:53;8.91;84.24
71082;SHT31;58740;50.672;18.690;2022-12-26T17:41:21;8.91;84.32
71082;SHT31;58740;50.672;18.690;2022-12-26T17:43:49;8.89;84.38
71082;SHT31;58740;50.672;18.690;2022-12-26T17:46:18;8.85;84.38
71082;SHT31;58740;50.672;18.690;2022-12-26T17:48:46;8.82;84.45
71082;SHT31;58740;50.672;18.690;2022-12-26T17:51:15;8.80;84.51
71082;SHT31;58740;50.672;18.690;2022-12-26T17:53:48;8.79;84.60
71082;SHT31;58740;50.672;18.690;2022-12-26T17:56:19;8.75;84.63
71082;SHT31;58740;50.672;18.690;2022-12-26T17:58:52;8.73;84.71
71082;SHT31;58740;50.672;18.690;2022-12-26T18:01:21;8.71;84.70
71082;SHT31;58740;50.672;18.690;2022-12-26T18:03:49;8.70;84.75
71082;SHT31;58740;50.672;18.690;2022-12-26T18:06:19;8.70;84.80
71082;SHT31;58740;50.672;18.690;2022-12-26T18:08:48;8.70;84.81
71082;SHT31;58740;50.672;18.690;2022-12-26T18:11:16;8.72;84.86
71082;SHT31;58740;50.672;18.690;2022-12-26T18:13:43;8.74;84.84
71082;SHT31;58740;50.672;18.690;2022-12-26T18:16:15;8.73;84.95
71082;SHT31;58740;50.672;18.690;2022-12-26T18:18:46;8.71;85.05
71082;SHT31;58740;50.672;18.690;2022-12-26T18:21:15;8.69;85.14
71082;SHT31;58740;50.672;18.690;2022-12-26T18:23:43;8.69;85.22
71082;SHT31;58740;50.672;18.690;2022-12-26T18:26:13;8.70;85.31
71082;SHT31;58740;50.672;18.690;2022-12-26T18:28:49;8.73;85.39
71082;SHT31;58740;50.672;18.690;2022-12-26T18:31:18;8.75;85.47
71082;SHT31;58740;50.672;18.690;2022-12-26T18:33:46;8.78;85.44
71082;SHT31;58740;50.672;18.690;2022-12-26T18:36:15;8.77;85.47
71082;SHT31;58740;50.672;18.690;2022-12-26T18:38:44;8.76;85.59
71082;SHT31;58740;50.672;18.690;2022-12-26T18:41:13;8.75;85.61
71082;SHT31;58740;50.672;18.690;2022-12-26T18:43:43;8.74;85.73
71082;SHT31;58740;50.672;18.690;2022-12-26T18:46:15;8.72;85.83
71082;SHT31;58740;50.672;18.690;2022-12-26T18:48:49;8.72;85.94
71082;SHT31;58740;50.672;18.690;2022-12-26T18:51:20;8.72;86.04
71082;SHT31;58740;50.672;18.690;2022-12-26T18:53:48;8.71;86.15
71082;SHT31;58740;50.672;18.690;2022-12-26T18:56:17;8.70;86.18
71082;SHT31;58740;50.672;18.690;2022-12-26T18:58:47;8.69;86.31
71082;SHT31;58740;50.672;18.690;2022-12-26T19:01:24;8.66;86.36
71082;SHT31;58740;50.672;18.690;2022-12-26T19:03:53;8.68;86.39
71082;SHT31;58740;50.672;18.690;2022-12-26T19:06:22;8.68;86.42
71082;SHT31;58740;50.672;18.690;2022-12-26T19:08:53;8.69;86.45
71082;SHT31;58740;50.672;18.690;2022-12-26T19:11:22;8.72;86.44
71082;SHT31;58740;50.672;18.690;2022-12-26T19:13:49;8.74;86.40
71082;SHT31;58740;50.672;18.690;2022-12-26T19:16:17;8.74;86.31
71082;SHT31;58740;50.672;18.690;2022-12-26T19:18:45;8.75;86.36
71082;SHT31;58740;50.672;18.690;2022-12-26T19:21:14;8.74;86.39
71082;SHT31;58740;50.672;18.690;2022-12-26T19:23:44;8.75;86.34
71082;SHT31;58740;50.672;18.690;2022-12-26T19:26:15;8.77;86.38
71082;SHT31;58740;50.672;18.690;2022-12-26T19:28:49;8.81;86.30
71082;SHT31;58740;50.672;18.690;2022-12-26T19:31:19;8.83;86.30
71082;SHT31;58740;50.672;18.690;2022-12-26T19:33:50;8.85;86.29
71082;SHT31;58740;50.672;18.690;2022-12-26T19:36:17;8.85;86.25
71082;SHT31;58740;50.672;18.690;2022-12-26T19:38:45;8.85;86.22
71082;SHT31;58740;50.672;18.690;2022-12-26T19:41:13;8.86;86.29
71082;SHT31;58740;50.672;18.690;2022-12-26T19:43:41;8.85;86.32
71082;SHT31;58740;50.672;18.690;2022-12-26T19:46:10;8.85;86.38
71082;SHT31;58740;50.672;18.690;2022-12-26T19:48:41;8.86;86.41
71082;SHT31;58740;50.672;18.690;2022-12-26T19:51:10;8.88;86.41
71082;SHT31;58740;50.672;18.690;2022-12-26T19:53:41;8.88;86.53
71082;SHT31;58740;50.672;18.690;2022-12-26T19:56:12;8.85;86.60
71082;SHT31;58740;50.672;18.690;2022-12-26T19:58:46;8.85;86.62
71082;SHT31;58740;50.672;18.690;2022-12-26T20:01:25;8.86;86.61
71082;SHT31;58740;50.672;18.690;2022-12-26T20:03:57;8.88;86.60
71082;SHT31;58740;50.672;18.690;2022-12-26T20:06:29;8.90;86.60
71082;SHT31;58740;50.672;18.690;2022-12-26T20:09:00;8.90;86.61
71082;SHT31;58740;50.672;18.690;2022-12-26T20:11:37;8.90;86.60
71082;SHT31;58740;50.672;18.690;2022-12-26T20:14:11;8.90;86.67
71082;SHT31;58740;50.672;18.690;2022-12-26T20:16:43;8.91;86.64
71082;SHT31;58740;50.672;18.690;2022-12-26T20:19:32;8.94;86.59
71082;SHT31;58740;50.672;18.690;2022-12-26T20:22:00;8.95;86.58